Parlin, Colorado
Current Conditions -  °F | °C
As of 2:35 PM on Friday 19 Dec 2014 (Local Time) from KGUC Reporting Station
Overcast Overcast  
Wind Chill: 24°   Ceiling: 4100
Heat Index: 30°   Visibility: 10mi
Dew Point: 18°   Wind: 6mph
Humidity: 60%   Direction: 240°WSW
Pressure: 30.18"   Gusts: NA
Location:  38.5°N, 106.73°W
Report Text: KGUC 192135Z AUTO 24005KT 10SM BKN041 OVC049 M01/M08 A3018 RMK AO1
Loading
Personal Weather Stations






























Interactive Weather Map New forecast layout! Learn more

10-Day Weather Forecast

Advertisements
Track Severe Weather on mobile